sensor_id;sensor_type;location;lat;lon;timestamp;temperature;humidity
10175;DHT22;18221;38.704;0.152;2023-11-19T00:03:35;15.40;99.90
10175;DHT22;18221;38.704;0.152;2023-11-19T00:06:03;15.40;99.90
10175;DHT22;18221;38.704;0.152;2023-11-19T00:08:32;15.40;99.90
10175;DHT22;18221;38.704;0.152;2023-11-19T00:11:00;15.40;99.90
10175;DHT22;18221;38.704;0.152;2023-11-19T00:13:29;15.40;99.90
10175;DHT22;18221;38.704;0.152;2023-11-19T00:15:56;15.40;99.90
10175;DHT22;18221;38.704;0.152;2023-11-19T00:18:24;15.50;99.90
10175;DHT22;18221;38.704;0.152;2023-11-19T00:20:54;15.40;99.90
10175;DHT22;18221;38.704;0.152;2023-11-19T00:23:22;15.40;99.90
10175;DHT22;18221;38.704;0.152;2023-11-19T00:25:50;15.40;99.90
10175;DHT22;18221;38.704;0.152;2023-11-19T00:28:18;15.40;99.90
10175;DHT22;18221;38.704;0.152;2023-11-19T00:30:46;15.50;99.90
10175;DHT22;18221;38.704;0.152;2023-11-19T00:33:15;15.40;99.90
10175;DHT22;18221;38.704;0.152;2023-11-19T00:35:43;15.40;99.90
10175;DHT22;18221;38.704;0.152;2023-11-19T00:38:12;15.40;99.90
10175;DHT22;18221;38.704;0.152;2023-11-19T00:40:41;15.40;99.90
10175;DHT22;18221;38.704;0.152;2023-11-19T00:43:11;15.40;99.90
10175;DHT22;18221;38.704;0.152;2023-11-19T00:45:39;15.40;99.90
10175;DHT22;18221;38.704;0.152;2023-11-19T00:48:07;15.40;99.90
10175;DHT22;18221;38.704;0.152;2023-11-19T00:50:35;15.30;99.90
10175;DHT22;18221;38.704;0.152;2023-11-19T00:53:03;15.30;99.90
10175;DHT22;18221;38.704;0.152;2023-11-19T00:55:32;15.30;99.90
10175;DHT22;18221;38.704;0.152;2023-11-19T00:58:00;15.30;99.90
10175;DHT22;18221;38.704;0.152;2023-11-19T01:00:29;15.20;99.90
10175;DHT22;18221;38.704;0.152;2023-11-19T01:03:00;15.20;99.90
10175;DHT22;18221;38.704;0.152;2023-11-19T01:05:28;15.20;99.90
10175;DHT22;18221;38.704;0.152;2023-11-19T01:07:57;15.20;99.90
10175;DHT22;18221;38.704;0.152;2023-11-19T01:10:24;15.20;99.90
10175;DHT22;18221;38.704;0.152;2023-11-19T01:12:54;15.20;99.90
10175;DHT22;18221;38.704;0.152;2023-11-19T01:15:22;15.30;99.90
10175;DHT22;18221;38.704;0.152;2023-11-19T01:17:50;15.20;99.90
10175;DHT22;18221;38.704;0.152;2023-11-19T01:20:18;15.30;99.90
10175;DHT22;18221;38.704;0.152;2023-11-19T01:22:46;15.30;99.90
10175;DHT22;18221;38.704;0.152;2023-11-19T01:25:14;15.20;99.90
10175;DHT22;18221;38.704;0.152;2023-11-19T01:27:42;15.30;99.90
10175;DHT22;18221;38.704;0.152;2023-11-19T01:30:13;15.20;99.90
10175;DHT22;18221;38.704;0.152;2023-11-19T01:32:41;15.20;99.90
10175;DHT22;18221;38.704;0.152;2023-11-19T01:35:09;15.20;99.90
10175;DHT22;18221;38.704;0.152;2023-11-19T01:37:37;15.20;99.90
10175;DHT22;18221;38.704;0.152;2023-11-19T01:40:05;15.20;99.90
10175;DHT22;18221;38.704;0.152;2023-11-19T01:42:37;15.10;99.90
10175;DHT22;18221;38.704;0.152;2023-11-19T01:45:06;15.20;99.90
10175;DHT22;18221;38.704;0.152;2023-11-19T01:47:37;15.10;99.90
10175;DHT22;18221;38.704;0.152;2023-11-19T01:50:08;15.10;99.90
10175;DHT22;18221;38.704;0.152;2023-11-19T01:52:36;15.10;99.90
10175;DHT22;18221;38.704;0.152;2023-11-19T01:55:07;15.00;99.90
10175;DHT22;18221;38.704;0.152;2023-11-19T01:57:37;15.00;99.90
10175;DHT22;18221;38.704;0.152;2023-11-19T02:00:08;15.00;99.90
10175;DHT22;18221;38.704;0.152;2023-11-19T02:02:40;15.00;99.90
10175;DHT22;18221;38.704;0.152;2023-11-19T02:05:09;15.00;99.90
10175;DHT22;18221;38.704;0.152;2023-11-19T02:07:38;15.00;99.90
10175;DHT22;18221;38.704;0.152;2023-11-19T02:10:07;15.00;99.90
10175;DHT22;18221;38.704;0.152;2023-11-19T02:12:38;15.00;99.90
10175;DHT22;18221;38.704;0.152;2023-11-19T02:15:10;14.90;99.90
10175;DHT22;18221;38.704;0.152;2023-11-19T02:17:39;14.90;99.90
10175;DHT22;18221;38.704;0.152;2023-11-19T02:20:09;14.90;99.90
10175;DHT22;18221;38.704;0.152;2023-11-19T02:22:40;14.90;99.90
10175;DHT22;18221;38.704;0.152;2023-11-19T02:25:15;14.90;99.90
10175;DHT22;18221;38.704;0.152;2023-11-19T02:27:53;14.90;99.90
10175;DHT22;18221;38.704;0.152;2023-11-19T02:30:24;15.00;99.90
10175;DHT22;18221;38.704;0.152;2023-11-19T02:32:54;14.90;99.90
10175;DHT22;18221;38.704;0.152;2023-11-19T02:35:23;14.90;99.90
10175;DHT22;18221;38.704;0.152;2023-11-19T02:37:51;15.00;99.90
10175;DHT22;18221;38.704;0.152;2023-11-19T02:40:19;15.00;99.90
10175;DHT22;18221;38.704;0.152;2023-11-19T02:42:48;15.10;99.90
10175;DHT22;18221;38.704;0.152;2023-11-19T02:45:18;15.00;99.90
10175;DHT22;18221;38.704;0.152;2023-11-19T02:47:46;15.00;99.90
10175;DHT22;18221;38.704;0.152;2023-11-19T02:50:14;15.10;99.90
10175;DHT22;18221;38.704;0.152;2023-11-19T02:52:42;15.00;99.90
10175;DHT22;18221;38.704;0.152;2023-11-19T02:55:12;15.00;99.90
10175;DHT22;18221;38.704;0.152;2023-11-19T02:57:40;15.00;99.90
10175;DHT22;18221;38.704;0.152;2023-11-19T03:00:14;17.40;99.90
10175;DHT22;18221;38.704;0.152;2023-11-19T03:02:48;15.00;99.90
10175;DHT22;18221;38.704;0.152;2023-11-19T03:05:24;15.00;99.90
10175;DHT22;18221;38.704;0.152;2023-11-19T03:07:56;15.00;99.90
10175;DHT22;18221;38.704;0.152;2023-11-19T03:10:24;15.10;99.90
10175;DHT22;18221;38.704;0.152;2023-11-19T03:12:52;15.10;99.90
10175;DHT22;18221;38.704;0.152;2023-11-19T03:15:22;15.10;99.90
10175;DHT22;18221;38.704;0.152;2023-11-19T03:17:50;15.10;99.90
10175;DHT22;18221;38.704;0.152;2023-11-19T03:20:19;15.10;99.90
10175;DHT22;18221;38.704;0.152;2023-11-19T03:22:47;15.10;99.90
10175;DHT22;18221;38.704;0.152;2023-11-19T03:25:16;15.10;99.90
10175;DHT22;18221;38.704;0.152;2023-11-19T03:27:44;15.20;99.90
10175;DHT22;18221;38.704;0.152;2023-11-19T03:30:12;15.20;99.90
10175;DHT22;18221;38.704;0.152;2023-11-19T03:32:45;15.20;99.90
10175;DHT22;18221;38.704;0.152;2023-11-19T03:35:13;15.20;99.90
10175;DHT22;18221;38.704;0.152;2023-11-19T03:37:40;15.20;99.90
10175;DHT22;18221;38.704;0.152;2023-11-19T03:40:10;15.10;99.90
10175;DHT22;18221;38.704;0.152;2023-11-19T03:42:39;15.20;99.90
10175;DHT22;18221;38.704;0.152;2023-11-19T03:45:07;15.10;99.90
10175;DHT22;18221;38.704;0.152;2023-11-19T03:47:36;15.10;99.90
10175;DHT22;18221;38.704;0.152;2023-11-19T03:50:07;15.10;99.90
10175;DHT22;18221;38.704;0.152;2023-11-19T03:52:35;15.10;99.90
10175;DHT22;18221;38.704;0.152;2023-11-19T03:55:04;15.00;99.90
10175;DHT22;18221;38.704;0.152;2023-11-19T03:57:34;15.00;99.90
10175;DHT22;18221;38.704;0.152;2023-11-19T04:00:02;15.00;99.90
10175;DHT22;18221;38.704;0.152;2023-11-19T04:02:34;14.90;99.90
10175;DHT22;18221;38.704;0.152;2023-11-19T04:05:02;14.90;99.90
10175;DHT22;18221;38.704;0.152;2023-11-19T04:07:32;14.90;99.90
10175;DHT22;18221;38.704;0.152;2023-11-19T04:10:01;14.90;99.90
10175;DHT22;18221;38.704;0.152;2023-11-19T04:12:30;14.90;99.90
10175;DHT22;18221;38.704;0.152;2023-11-19T04:14:58;14.90;99.90
10175;DHT22;18221;38.704;0.152;2023-11-19T04:17:25;14.90;99.90
10175;DHT22;18221;38.704;0.152;2023-11-19T04:19:54;14.90;99.90
10175;DHT22;18221;38.704;0.152;2023-11-19T04:22:23;14.90;99.90
10175;DHT22;18221;38.704;0.152;2023-11-19T04:24:52;14.90;99.90
10175;DHT22;18221;38.704;0.152;2023-11-19T04:27:20;15.00;99.90
10175;DHT22;18221;38.704;0.152;2023-11-19T04:29:48;15.00;99.90
10175;DHT22;18221;38.704;0.152;2023-11-19T04:32:16;15.00;99.90
10175;DHT22;18221;38.704;0.152;2023-11-19T04:34:45;15.00;99.90
10175;DHT22;18221;38.704;0.152;2023-11-19T04:37:13;15.00;99.90
10175;DHT22;18221;38.704;0.152;2023-11-19T04:39:44;15.00;99.90
10175;DHT22;18221;38.704;0.152;2023-11-19T04:42:12;15.00;99.90
10175;DHT22;18221;38.704;0.152;2023-11-19T04:44:43;15.00;99.90
10175;DHT22;18221;38.704;0.152;2023-11-19T04:47:11;15.00;99.90
10175;DHT22;18221;38.704;0.152;2023-11-19T04:49:40;15.00;99.90
10175;DHT22;18221;38.704;0.152;2023-11-19T04:52:09;15.00;99.90
10175;DHT22;18221;38.704;0.152;2023-11-19T04:54:42;14.90;99.90
10175;DHT22;18221;38.704;0.152;2023-11-19T04:57:11;14.90;99.90
10175;DHT22;18221;38.704;0.152;2023-11-19T04:59:39;14.90;99.90
10175;DHT22;18221;38.704;0.152;2023-11-19T05:02:08;14.80;99.90
10175;DHT22;18221;38.704;0.152;2023-11-19T05:04:36;14.80;99.90
10175;DHT22;18221;38.704;0.152;2023-11-19T05:07:04;14.80;99.90
10175;DHT22;18221;38.704;0.152;2023-11-19T05:09:33;14.80;99.90
10175;DHT22;18221;38.704;0.152;2023-11-19T05:12:02;14.80;99.90
10175;DHT22;18221;38.704;0.152;2023-11-19T05:14:32;14.70;99.90
10175;DHT22;18221;38.704;0.152;2023-11-19T05:16:59;14.70;99.90
10175;DHT22;18221;38.704;0.152;2023-11-19T05:19:27;14.70;99.90
10175;DHT22;18221;38.704;0.152;2023-11-19T05:21:55;14.60;99.90
10175;DHT22;18221;38.704;0.152;2023-11-19T05:24:23;14.60;99.90
10175;DHT22;18221;38.704;0.152;2023-11-19T05:26:52;14.60;99.90
10175;DHT22;18221;38.704;0.152;2023-11-19T05:29:22;14.50;99.90
10175;DHT22;18221;38.704;0.152;2023-11-19T05:31:53;14.50;99.90
10175;DHT22;18221;38.704;0.152;2023-11-19T05:34:21;14.50;99.90
10175;DHT22;18221;38.704;0.152;2023-11-19T05:36:49;14.50;99.90
10175;DHT22;18221;38.704;0.152;2023-11-19T05:39:17;14.50;99.90
10175;DHT22;18221;38.704;0.152;2023-11-19T05:41:46;14.40;99.90
10175;DHT22;18221;38.704;0.152;2023-11-19T05:44:14;14.50;99.90
10175;DHT22;18221;38.704;0.152;2023-11-19T05:46:43;14.40;99.90
10175;DHT22;18221;38.704;0.152;2023-11-19T05:49:11;14.40;99.90
10175;DHT22;18221;38.704;0.152;2023-11-19T05:51:40;14.40;99.90
10175;DHT22;18221;38.704;0.152;2023-11-19T05:54:09;14.40;99.90
10175;DHT22;18221;38.704;0.152;2023-11-19T05:56:37;14.40;99.90
10175;DHT22;18221;38.704;0.152;2023-11-19T05:59:05;14.40;99.90
10175;DHT22;18221;38.704;0.152;2023-11-19T06:01:40;14.30;99.90
10175;DHT22;18221;38.704;0.152;2023-11-19T06:04:10;14.30;99.90
10175;DHT22;18221;38.704;0.152;2023-11-19T06:06:38;14.30;99.90
10175;DHT22;18221;38.704;0.152;2023-11-19T06:09:06;14.30;99.90
10175;DHT22;18221;38.704;0.152;2023-11-19T06:11:35;14.30;99.90
10175;DHT22;18221;38.704;0.152;2023-11-19T06:14:03;14.30;99.90
10175;DHT22;18221;38.704;0.152;2023-11-19T06:16:32;14.30;99.90
10175;DHT22;18221;38.704;0.152;2023-11-19T06:19:01;14.40;99.90
10175;DHT22;18221;38.704;0.152;2023-11-19T06:21:29;14.40;99.90
10175;DHT22;18221;38.704;0.152;2023-11-19T06:23:57;14.40;99.90
10175;DHT22;18221;38.704;0.152;2023-11-19T06:26:25;14.40;99.90
10175;DHT22;18221;38.704;0.152;2023-11-19T06:28:54;14.40;99.90
10175;DHT22;18221;38.704;0.152;2023-11-19T06:31:22;15.50;99.90
10175;DHT22;18221;38.704;0.152;2023-11-19T06:33:49;14.40;99.90
10175;DHT22;18221;38.704;0.152;2023-11-19T06:36:19;14.40;99.90
10175;DHT22;18221;38.704;0.152;2023-11-19T06:38:47;14.40;99.90
10175;DHT22;18221;38.704;0.152;2023-11-19T06:41:15;14.40;99.90
10175;DHT22;18221;38.704;0.152;2023-11-19T06:43:43;14.50;99.90
10175;DHT22;18221;38.704;0.152;2023-11-19T06:46:17;14.50;99.90
10175;DHT22;18221;38.704;0.152;2023-11-19T06:48:46;14.50;99.90
10175;DHT22;18221;38.704;0.152;2023-11-19T06:51:14;14.40;99.90
10175;DHT22;18221;38.704;0.152;2023-11-19T06:53:44;14.50;99.90
10175;DHT22;18221;38.704;0.152;2023-11-19T06:56:19;14.50;99.90
10175;DHT22;18221;38.704;0.152;2023-11-19T06:58:48;14.50;99.90
10175;DHT22;18221;38.704;0.152;2023-11-19T07:01:17;16.40;99.90
10175;DHT22;18221;38.704;0.152;2023-11-19T07:03:45;14.50;99.90
10175;DHT22;18221;38.704;0.152;2023-11-19T07:06:13;14.60;99.90
10175;DHT22;18221;38.704;0.152;2023-11-19T07:08:43;14.60;99.90
10175;DHT22;18221;38.704;0.152;2023-11-19T07:11:12;14.60;99.90
10175;DHT22;18221;38.704;0.152;2023-11-19T07:13:42;14.60;99.90
10175;DHT22;18221;38.704;0.152;2023-11-19T07:16:13;14.60;99.90
10175;DHT22;18221;38.704;0.152;2023-11-19T07:18:41;14.60;99.90
10175;DHT22;18221;38.704;0.152;2023-11-19T07:21:11;14.60;99.90
10175;DHT22;18221;38.704;0.152;2023-11-19T07:23:42;14.60;99.90
10175;DHT22;18221;38.704;0.152;2023-11-19T07:26:12;14.60;99.90
10175;DHT22;18221;38.704;0.152;2023-11-19T07:28:40;14.60;99.90
10175;DHT22;18221;38.704;0.152;2023-11-19T07:31:11;14.60;99.90
10175;DHT22;18221;38.704;0.152;2023-11-19T07:33:40;14.60;99.90
10175;DHT22;18221;38.704;0.152;2023-11-19T07:36:09;14.70;99.90
10175;DHT22;18221;38.704;0.152;2023-11-19T07:38:37;14.70;99.90
10175;DHT22;18221;38.704;0.152;2023-11-19T07:41:07;14.70;99.90
10175;DHT22;18221;38.704;0.152;2023-11-19T07:43:39;14.70;99.90
10175;DHT22;18221;38.704;0.152;2023-11-19T07:46:11;14.70;99.90
10175;DHT22;18221;38.704;0.152;2023-11-19T07:48:39;14.80;99.90
10175;DHT22;18221;38.704;0.152;2023-11-19T07:51:08;14.80;99.90
10175;DHT22;18221;38.704;0.152;2023-11-19T07:53:38;14.80;99.90
10175;DHT22;18221;38.704;0.152;2023-11-19T07:56:08;14.90;99.90
10175;DHT22;18221;38.704;0.152;2023-11-19T07:58:37;14.90;99.90
10175;DHT22;18221;38.704;0.152;2023-11-19T08:01:05;14.90;99.90
10175;DHT22;18221;38.704;0.152;2023-11-19T08:03:33;15.00;99.90
10175;DHT22;18221;38.704;0.152;2023-11-19T08:06:03;14.90;99.90
10175;DHT22;18221;38.704;0.152;2023-11-19T08:08:31;15.00;99.90
10175;DHT22;18221;38.704;0.152;2023-11-19T08:11:00;15.00;99.90
10175;DHT22;18221;38.704;0.152;2023-11-19T08:13:30;15.00;99.90
10175;DHT22;18221;38.704;0.152;2023-11-19T08:15:58;15.00;99.90
10175;DHT22;18221;38.704;0.152;2023-11-19T08:18:26;15.00;99.90
10175;DHT22;18221;38.704;0.152;2023-11-19T08:20:54;15.00;99.90
10175;DHT22;18221;38.704;0.152;2023-11-19T08:23:24;15.10;99.90
10175;DHT22;18221;38.704;0.152;2023-11-19T08:25:54;15.10;99.90
10175;DHT22;18221;38.704;0.152;2023-11-19T08:28:22;15.10;99.90
10175;DHT22;18221;38.704;0.152;2023-11-19T08:30:51;15.20;99.90
10175;DHT22;18221;38.704;0.152;2023-11-19T08:33:19;15.30;99.90
10175;DHT22;18221;38.704;0.152;2023-11-19T08:35:48;15.30;99.90
10175;DHT22;18221;38.704;0.152;2023-11-19T08:38:16;15.30;99.90
10175;DHT22;18221;38.704;0.152;2023-11-19T08:40:44;15.40;99.90
10175;DHT22;18221;38.704;0.152;2023-11-19T08:43:12;15.40;99.90
10175;DHT22;18221;38.704;0.152;2023-11-19T08:45:40;15.40;99.90
10175;DHT22;18221;38.704;0.152;2023-11-19T08:48:09;15.40;99.90
10175;DHT22;18221;38.704;0.152;2023-11-19T08:50:37;15.50;99.90
10175;DHT22;18221;38.704;0.152;2023-11-19T08:53:05;15.60;99.90
10175;DHT22;18221;38.704;0.152;2023-11-19T08:55:33;15.70;99.90
10175;DHT22;18221;38.704;0.152;2023-11-19T08:58:04;15.80;99.90
10175;DHT22;18221;38.704;0.152;2023-11-19T09:00:32;15.80;99.90
10175;DHT22;18221;38.704;0.152;2023-11-19T09:03:00;15.90;99.90
10175;DHT22;18221;38.704;0.152;2023-11-19T09:05:31;15.90;99.90
10175;DHT22;18221;38.704;0.152;2023-11-19T09:07:59;15.90;99.90
10175;DHT22;18221;38.704;0.152;2023-11-19T09:10:27;16.00;99.90
10175;DHT22;18221;38.704;0.152;2023-11-19T09:12:55;16.00;99.90
10175;DHT22;18221;38.704;0.152;2023-11-19T09:15:23;16.10;99.90
10175;DHT22;18221;38.704;0.152;2023-11-19T09:17:51;16.20;99.90
10175;DHT22;18221;38.704;0.152;2023-11-19T09:20:19;16.20;99.90
10175;DHT22;18221;38.704;0.152;2023-11-19T09:22:49;16.30;99.90
10175;DHT22;18221;38.704;0.152;2023-11-19T09:25:17;16.30;99.90
10175;DHT22;18221;38.704;0.152;2023-11-19T09:27:45;16.40;99.90
10175;DHT22;18221;38.704;0.152;2023-11-19T09:30:13;16.40;99.90
10175;DHT22;18221;38.704;0.152;2023-11-19T09:32:42;16.50;99.90
10175;DHT22;18221;38.704;0.152;2023-11-19T09:35:10;16.50;99.90
10175;DHT22;18221;38.704;0.152;2023-11-19T09:37:40;16.50;99.90
10175;DHT22;18221;38.704;0.152;2023-11-19T09:40:10;16.50;99.90
10175;DHT22;18221;38.704;0.152;2023-11-19T09:42:43;16.50;99.90
10175;DHT22;18221;38.704;0.152;2023-11-19T09:45:14;16.50;99.90
10175;DHT22;18221;38.704;0.152;2023-11-19T09:47:44;16.60;99.90
10175;DHT22;18221;38.704;0.152;2023-11-19T09:50:17;16.60;99.90
10175;DHT22;18221;38.704;0.152;2023-11-19T09:52:46;16.60;99.90
10175;DHT22;18221;38.704;0.152;2023-11-19T09:55:16;16.70;99.90
10175;DHT22;18221;38.704;0.152;2023-11-19T09:57:44;16.70;99.90
10175;DHT22;18221;38.704;0.152;2023-11-19T10:00:14;16.80;99.90
10175;DHT22;18221;38.704;0.152;2023-11-19T10:02:45;16.80;99.90
10175;DHT22;18221;38.704;0.152;2023-11-19T10:05:13;16.90;99.90
10175;DHT22;18221;38.704;0.152;2023-11-19T10:07:42;16.90;99.90
10175;DHT22;18221;38.704;0.152;2023-11-19T10:10:10;17.00;99.90
10175;DHT22;18221;38.704;0.152;2023-11-19T10:12:45;17.00;99.90
10175;DHT22;18221;38.704;0.152;2023-11-19T10:15:19;16.90;99.90
10175;DHT22;18221;38.704;0.152;2023-11-19T10:17:50;16.90;99.90
10175;DHT22;18221;38.704;0.152;2023-11-19T10:20:18;17.00;99.90
10175;DHT22;18221;38.704;0.152;2023-11-19T10:22:47;18.60;99.90
10175;DHT22;18221;38.704;0.152;2023-11-19T10:25:22;17.20;99.90
10175;DHT22;18221;38.704;0.152;2023-11-19T10:27:53;17.20;99.90
10175;DHT22;18221;38.704;0.152;2023-11-19T10:30:22;17.30;99.90
10175;DHT22;18221;38.704;0.152;2023-11-19T10:33:05;17.30;99.90
10175;DHT22;18221;38.704;0.152;2023-11-19T10:35:35;17.20;99.90
10175;DHT22;18221;38.704;0.152;2023-11-19T10:38:14;17.30;99.90
10175;DHT22;18221;38.704;0.152;2023-11-19T10:40:42;17.30;99.90
10175;DHT22;18221;38.704;0.152;2023-11-19T10:43:12;17.40;99.90
10175;DHT22;18221;38.704;0.152;2023-11-19T10:45:40;17.30;99.90
10175;DHT22;18221;38.704;0.152;2023-11-19T10:48:09;17.40;99.90
10175;DHT22;18221;38.704;0.152;2023-11-19T10:50:41;17.40;99.90
10175;DHT22;18221;38.704;0.152;2023-11-19T10:53:11;17.40;99.90
10175;DHT22;18221;38.704;0.152;2023-11-19T10:55:40;17.40;99.90
10175;DHT22;18221;38.704;0.152;2023-11-19T10:58:09;17.30;99.90
10175;DHT22;18221;38.704;0.152;2023-11-19T11:00:41;17.30;99.90
10175;DHT22;18221;38.704;0.152;2023-11-19T11:03:17;17.40;99.90
10175;DHT22;18221;38.704;0.152;2023-11-19T11:05:47;17.40;99.90
10175;DHT22;18221;38.704;0.152;2023-11-19T11:08:16;17.30;99.90
10175;DHT22;18221;38.704;0.152;2023-11-19T11:10:45;17.30;99.90
10175;DHT22;18221;38.704;0.152;2023-11-19T11:13:23;17.30;99.90
10175;DHT22;18221;38.704;0.152;2023-11-19T11:15:53;17.40;99.90
10175;DHT22;18221;38.704;0.152;2023-11-19T11:18:24;17.40;99.90
10175;DHT22;18221;38.704;0.152;2023-11-19T11:20:55;17.40;99.90
10175;DHT22;18221;38.704;0.152;2023-11-19T11:24:02;17.40;99.90
10175;DHT22;18221;38.704;0.152;2023-11-19T11:27:09;17.40;99.90
10175;DHT22;18221;38.704;0.152;2023-11-19T11:30:17;17.50;99.90
10175;DHT22;18221;38.704;0.152;2023-11-19T11:33:02;17.50;99.90
10175;DHT22;18221;38.704;0.152;2023-11-19T11:35:47;17.70;99.90
10175;DHT22;18221;38.704;0.152;2023-11-19T11:38:22;17.70;99.90
10175;DHT22;18221;38.704;0.152;2023-11-19T11:41:16;17.60;99.90
10175;DHT22;18221;38.704;0.152;2023-11-19T11:43:47;17.70;99.90
10175;DHT22;18221;38.704;0.152;2023-11-19T11:49:26;17.80;99.90
10175;DHT22;18221;38.704;0.152;2023-11-19T11:52:02;17.80;99.90
10175;DHT22;18221;38.704;0.152;2023-11-19T11:54:31;17.80;99.90
10175;DHT22;18221;38.704;0.152;2023-11-19T11:57:09;17.90;99.90
10175;DHT22;18221;38.704;0.152;2023-11-19T11:59:49;17.90;99.90
10175;DHT22;18221;38.704;0.152;2023-11-19T12:02:20;17.80;99.90
10175;DHT22;18221;38.704;0.152;2023-11-19T12:04:50;17.80;99.90
10175;DHT22;18221;38.704;0.152;2023-11-19T12:07:20;17.90;99.90
10175;DHT22;18221;38.704;0.152;2023-11-19T12:09:52;18.00;99.90
10175;DHT22;18221;38.704;0.152;2023-11-19T12:12:22;18.10;99.90
10175;DHT22;18221;38.704;0.152;2023-11-19T12:15:05;18.20;99.90
10175;DHT22;18221;38.704;0.152;2023-11-19T12:17:43;18.20;99.90
10175;DHT22;18221;38.704;0.152;2023-11-19T12:20:19;18.10;99.90
10175;DHT22;18221;38.704;0.152;2023-11-19T12:22:48;18.20;99.90
10175;DHT22;18221;38.704;0.152;2023-11-19T12:25:17;18.20;99.90
10175;DHT22;18221;38.704;0.152;2023-11-19T12:27:47;18.20;99.90
10175;DHT22;18221;38.704;0.152;2023-11-19T12:30:17;18.30;99.90
10175;DHT22;18221;38.704;0.152;2023-11-19T12:32:51;18.30;99.90
10175;DHT22;18221;38.704;0.152;2023-11-19T12:35:20;18.40;99.90
10175;DHT22;18221;38.704;0.152;2023-11-19T12:37:49;18.30;99.90
10175;DHT22;18221;38.704;0.152;2023-11-19T12:40:19;18.40;99.90
10175;DHT22;18221;38.704;0.152;2023-11-19T12:42:49;18.50;99.90
10175;DHT22;18221;38.704;0.152;2023-11-19T12:45:17;18.50;99.90
10175;DHT22;18221;38.704;0.152;2023-11-19T12:47:47;18.60;99.90
10175;DHT22;18221;38.704;0.152;2023-11-19T12:50:18;18.70;99.90
10175;DHT22;18221;38.704;0.152;2023-11-19T12:52:56;18.80;99.90
10175;DHT22;18221;38.704;0.152;2023-11-19T12:55:25;18.80;99.90
10175;DHT22;18221;38.704;0.152;2023-11-19T12:57:55;18.80;99.90
10175;DHT22;18221;38.704;0.152;2023-11-19T13:00:26;18.80;99.90
10175;DHT22;18221;38.704;0.152;2023-11-19T13:02:56;18.70;99.90
10175;DHT22;18221;38.704;0.152;2023-11-19T13:05:29;18.70;99.90
10175;DHT22;18221;38.704;0.152;2023-11-19T13:08:02;18.60;99.90
10175;DHT22;18221;38.704;0.152;2023-11-19T13:10:31;18.60;99.90
10175;DHT22;18221;38.704;0.152;2023-11-19T13:13:04;18.60;99.90
10175;DHT22;18221;38.704;0.152;2023-11-19T13:15:34;18.70;99.90
10175;DHT22;18221;38.704;0.152;2023-11-19T13:18:03;18.80;99.90
10175;DHT22;18221;38.704;0.152;2023-11-19T13:20:34;18.80;99.90
10175;DHT22;18221;38.704;0.152;2023-11-19T13:23:03;18.60;99.90
10175;DHT22;18221;38.704;0.152;2023-11-19T13:25:32;18.60;99.90
10175;DHT22;18221;38.704;0.152;2023-11-19T13:28:00;18.50;99.90
10175;DHT22;18221;38.704;0.152;2023-11-19T13:30:28;18.60;99.90
10175;DHT22;18221;38.704;0.152;2023-11-19T13:32:56;18.70;99.90
10175;DHT22;18221;38.704;0.152;2023-11-19T13:35:25;18.60;99.90
10175;DHT22;18221;38.704;0.152;2023-11-19T13:37:55;18.70;99.90
10175;DHT22;18221;38.704;0.152;2023-11-19T13:40:23;18.60;99.90
10175;DHT22;18221;38.704;0.152;2023-11-19T13:42:51;18.60;99.90
10175;DHT22;18221;38.704;0.152;2023-11-19T13:45:19;18.60;99.90
10175;DHT22;18221;38.704;0.152;2023-11-19T13:47:47;17.40;99.90
10175;DHT22;18221;38.704;0.152;2023-11-19T13:50:15;18.60;99.90
10175;DHT22;18221;38.704;0.152;2023-11-19T13:52:44;18.70;99.90
10175;DHT22;18221;38.704;0.152;2023-11-19T13:55:15;18.70;99.90
10175;DHT22;18221;38.704;0.152;2023-11-19T13:57:44;18.70;99.90
10175;DHT22;18221;38.704;0.152;2023-11-19T14:00:13;18.70;99.90
10175;DHT22;18221;38.704;0.152;2023-11-19T14:02:42;18.80;99.90
10175;DHT22;18221;38.704;0.152;2023-11-19T14:05:10;18.70;99.90
10175;DHT22;18221;38.704;0.152;2023-11-19T14:07:39;18.60;99.90
10175;DHT22;18221;38.704;0.152;2023-11-19T14:10:08;18.60;99.90
10175;DHT22;18221;38.704;0.152;2023-11-19T14:12:38;18.50;99.90
10175;DHT22;18221;38.704;0.152;2023-11-19T14:15:07;18.60;99.90
10175;DHT22;18221;38.704;0.152;2023-11-19T14:17:38;18.60;99.90
10175;DHT22;18221;38.704;0.152;2023-11-19T14:20:06;20.00;99.90
10175;DHT22;18221;38.704;0.152;2023-11-19T14:22:39;18.70;99.90
10175;DHT22;18221;38.704;0.152;2023-11-19T14:25:08;18.70;99.90
10175;DHT22;18221;38.704;0.152;2023-11-19T14:27:38;18.70;99.90
10175;DHT22;18221;38.704;0.152;2023-11-19T14:30:09;18.70;99.90
10175;DHT22;18221;38.704;0.152;2023-11-19T14:32:39;18.70;99.90
10175;DHT22;18221;38.704;0.152;2023-11-19T14:35:09;18.70;99.90
10175;DHT22;18221;38.704;0.152;2023-11-19T14:37:37;18.70;99.90
10175;DHT22;18221;38.704;0.152;2023-11-19T14:40:06;18.70;99.90
10175;DHT22;18221;38.704;0.152;2023-11-19T14:42:38;18.70;99.90
10175;DHT22;18221;38.704;0.152;2023-11-19T14:45:07;18.70;99.90
10175;DHT22;18221;38.704;0.152;2023-11-19T14:47:38;18.70;99.90
10175;DHT22;18221;38.704;0.152;2023-11-19T14:50:07;18.60;99.90
10175;DHT22;18221;38.704;0.152;2023-11-19T14:52:35;18.50;99.90
10175;DHT22;18221;38.704;0.152;2023-11-19T14:55:04;18.50;99.90
10175;DHT22;18221;38.704;0.152;2023-11-19T14:57:32;18.50;99.90
10175;DHT22;18221;38.704;0.152;2023-11-19T15:00:04;18.60;99.90
10175;DHT22;18221;38.704;0.152;2023-11-19T15:02:40;18.40;99.90
10175;DHT22;18221;38.704;0.152;2023-11-19T15:05:08;18.40;99.90
10175;DHT22;18221;38.704;0.152;2023-11-19T15:07:37;18.40;99.90
10175;DHT22;18221;38.704;0.152;2023-11-19T15:10:07;18.30;99.90
10175;DHT22;18221;38.704;0.152;2023-11-19T15:12:37;18.30;99.90
10175;DHT22;18221;38.704;0.152;2023-11-19T15:15:09;18.20;99.90
10175;DHT22;18221;38.704;0.152;2023-11-19T15:17:39;18.20;99.90
10175;DHT22;18221;38.704;0.152;2023-11-19T15:20:08;18.20;99.90
10175;DHT22;18221;38.704;0.152;2023-11-19T15:22:39;18.10;99.90
10175;DHT22;18221;38.704;0.152;2023-11-19T15:25:08;18.10;99.90
10175;DHT22;18221;38.704;0.152;2023-11-19T15:27:36;18.10;99.90
10175;DHT22;18221;38.704;0.152;2023-11-19T15:30:04;18.00;99.90
10175;DHT22;18221;38.704;0.152;2023-11-19T15:32:37;18.00;99.90
10175;DHT22;18221;38.704;0.152;2023-11-19T15:35:05;18.00;99.90
10175;DHT22;18221;38.704;0.152;2023-11-19T15:37:34;18.00;99.90
10175;DHT22;18221;38.704;0.152;2023-11-19T15:40:02;17.90;99.90
10175;DHT22;18221;38.704;0.152;2023-11-19T15:42:31;17.80;99.90
10175;DHT22;18221;38.704;0.152;2023-11-19T15:44:59;17.70;99.90
10175;DHT22;18221;38.704;0.152;2023-11-19T15:47:30;17.70;99.90
10175;DHT22;18221;38.704;0.152;2023-11-19T15:49:59;17.70;99.90
10175;DHT22;18221;38.704;0.152;2023-11-19T15:52:27;17.60;99.90